sensor_id;sensor_type;location;lat;lon;timestamp;P1;durP1;ratioP1;P2;durP2;ratioP2
3993;SDS011;2011;48.238;13.948;2023-06-14T00:01:21;8.53;;;4.57;;
3993;SDS011;2011;48.238;13.948;2023-06-14T00:03:48;11.40;;;4.90;;
3993;SDS011;2011;48.238;13.948;2023-06-14T00:06:14;12.40;;;4.53;;
3993;SDS011;2011;48.238;13.948;2023-06-14T00:08:42;7.50;;;3.90;;
3993;SDS011;2011;48.238;13.948;2023-06-14T00:11:09;7.40;;;3.90;;
3993;SDS011;2011;48.238;13.948;2023-06-14T00:13:36;9.30;;;4.00;;
3993;SDS011;2011;48.238;13.948;2023-06-14T00:16:04;10.20;;;4.43;;
3993;SDS011;2011;48.238;13.948;2023-06-14T00:18:31;8.60;;;3.70;;
3993;SDS011;2011;48.238;13.948;2023-06-14T00:20:58;8.13;;;4.33;;
3993;SDS011;2011;48.238;13.948;2023-06-14T00:23:25;8.33;;;3.73;;
3993;SDS011;2011;48.238;13.948;2023-06-14T00:25:51;7.93;;;4.40;;
3993;SDS011;2011;48.238;13.948;2023-06-14T00:28:18;7.80;;;4.10;;
3993;SDS011;2011;48.238;13.948;2023-06-14T00:30:45;8.87;;;3.57;;
3993;SDS011;2011;48.238;13.948;2023-06-14T00:33:13;7.60;;;3.80;;
3993;SDS011;2011;48.238;13.948;2023-06-14T00:35:40;7.67;;;4.07;;
3993;SDS011;2011;48.238;13.948;2023-06-14T00:38:07;6.00;;;3.60;;
3993;SDS011;2011;48.238;13.948;2023-06-14T00:40:34;30.47;;;4.50;;
3993;SDS011;2011;48.238;13.948;2023-06-14T00:43:01;10.30;;;4.70;;
3993;SDS011;2011;48.238;13.948;2023-06-14T00:45:28;8.40;;;4.13;;
3993;SDS011;2011;48.238;13.948;2023-06-14T00:47:56;7.50;;;4.60;;
3993;SDS011;2011;48.238;13.948;2023-06-14T00:50:25;9.40;;;3.90;;
3993;SDS011;2011;48.238;13.948;2023-06-14T00:52:52;13.63;;;3.67;;
3993;SDS011;2011;48.238;13.948;2023-06-14T00:55:19;8.20;;;4.47;;
3993;SDS011;2011;48.238;13.948;2023-06-14T00:57:46;7.97;;;4.30;;
3993;SDS011;2011;48.238;13.948;2023-06-14T01:00:14;11.93;;;4.33;;
3993;SDS011;2011;48.238;13.948;2023-06-14T01:02:41;12.67;;;4.80;;
3993;SDS011;2011;48.238;13.948;2023-06-14T01:05:08;11.23;;;4.20;;
3993;SDS011;2011;48.238;13.948;2023-06-14T01:07:43;12.30;;;4.43;;
3993;SDS011;2011;48.238;13.948;2023-06-14T01:10:26;9.23;;;3.90;;
3993;SDS011;2011;48.238;13.948;2023-06-14T01:12:59;8.97;;;4.37;;
3993;SDS011;2011;48.238;13.948;2023-06-14T01:15:33;7.50;;;4.27;;
3993;SDS011;2011;48.238;13.948;2023-06-14T01:18:01;10.73;;;4.47;;
3993;SDS011;2011;48.238;13.948;2023-06-14T01:20:29;9.63;;;4.77;;
3993;SDS011;2011;48.238;13.948;2023-06-14T01:22:59;6.20;;;4.10;;
3993;SDS011;2011;48.238;13.948;2023-06-14T01:25:26;10.93;;;4.70;;
3993;SDS011;2011;48.238;13.948;2023-06-14T01:27:53;11.53;;;4.17;;
3993;SDS011;2011;48.238;13.948;2023-06-14T01:30:23;7.60;;;3.73;;
3993;SDS011;2011;48.238;13.948;2023-06-14T01:32:51;7.20;;;4.57;;
3993;SDS011;2011;48.238;13.948;2023-06-14T01:35:19;8.50;;;4.90;;
3993;SDS011;2011;48.238;13.948;2023-06-14T01:37:47;7.80;;;3.93;;
3993;SDS011;2011;48.238;13.948;2023-06-14T01:40:15;8.90;;;4.50;;
3993;SDS011;2011;48.238;13.948;2023-06-14T01:42:44;8.80;;;4.47;;
3993;SDS011;2011;48.238;13.948;2023-06-14T01:45:13;10.30;;;4.23;;
3993;SDS011;2011;48.238;13.948;2023-06-14T01:47:41;12.00;;;4.23;;
3993;SDS011;2011;48.238;13.948;2023-06-14T01:50:09;6.50;;;4.20;;
3993;SDS011;2011;48.238;13.948;2023-06-14T01:52:37;8.47;;;4.80;;
3993;SDS011;2011;48.238;13.948;2023-06-14T01:55:04;9.90;;;4.90;;
3993;SDS011;2011;48.238;13.948;2023-06-14T01:57:34;11.53;;;5.70;;
3993;SDS011;2011;48.238;13.948;2023-06-14T02:00:01;8.77;;;5.10;;
3993;SDS011;2011;48.238;13.948;2023-06-14T02:02:29;8.47;;;5.20;;
3993;SDS011;2011;48.238;13.948;2023-06-14T02:04:55;9.23;;;4.00;;
3993;SDS011;2011;48.238;13.948;2023-06-14T02:07:23;10.33;;;4.77;;
3993;SDS011;2011;48.238;13.948;2023-06-14T02:09:50;9.80;;;4.23;;
3993;SDS011;2011;48.238;13.948;2023-06-14T02:12:17;8.40;;;4.80;;
3993;SDS011;2011;48.238;13.948;2023-06-14T02:14:45;9.40;;;4.40;;
3993;SDS011;2011;48.238;13.948;2023-06-14T02:17:13;8.60;;;4.63;;
3993;SDS011;2011;48.238;13.948;2023-06-14T02:19:41;11.00;;;4.67;;
3993;SDS011;2011;48.238;13.948;2023-06-14T02:22:08;11.23;;;5.23;;
3993;SDS011;2011;48.238;13.948;2023-06-14T02:24:35;9.27;;;5.20;;
3993;SDS011;2011;48.238;13.948;2023-06-14T02:27:02;9.93;;;5.13;;
3993;SDS011;2011;48.238;13.948;2023-06-14T02:29:29;9.47;;;5.50;;
3993;SDS011;2011;48.238;13.948;2023-06-14T02:31:57;10.03;;;5.70;;
3993;SDS011;2011;48.238;13.948;2023-06-14T02:34:24;11.50;;;5.10;;
3993;SDS011;2011;48.238;13.948;2023-06-14T02:36:51;9.47;;;5.60;;
3993;SDS011;2011;48.238;13.948;2023-06-14T02:39:18;9.73;;;5.43;;
3993;SDS011;2011;48.238;13.948;2023-06-14T02:41:48;11.43;;;4.90;;
3993;SDS011;2011;48.238;13.948;2023-06-14T02:44:17;13.37;;;4.90;;
3993;SDS011;2011;48.238;13.948;2023-06-14T02:46:44;6.70;;;4.47;;
3993;SDS011;2011;48.238;13.948;2023-06-14T02:49:13;13.80;;;4.93;;
3993;SDS011;2011;48.238;13.948;2023-06-14T02:51:40;9.60;;;4.63;;
3993;SDS011;2011;48.238;13.948;2023-06-14T02:54:07;8.00;;;4.80;;
3993;SDS011;2011;48.238;13.948;2023-06-14T02:56:34;14.50;;;4.87;;
3993;SDS011;2011;48.238;13.948;2023-06-14T02:59:01;7.13;;;4.30;;
3993;SDS011;2011;48.238;13.948;2023-06-14T03:01:28;7.93;;;5.10;;
3993;SDS011;2011;48.238;13.948;2023-06-14T03:03:59;8.67;;;4.43;;
3993;SDS011;2011;48.238;13.948;2023-06-14T03:06:29;12.30;;;4.87;;
3993;SDS011;2011;48.238;13.948;2023-06-14T03:08:57;11.90;;;4.63;;
3993;SDS011;2011;48.238;13.948;2023-06-14T03:11:26;12.13;;;4.83;;
3993;SDS011;2011;48.238;13.948;2023-06-14T03:13:53;9.20;;;4.63;;
3993;SDS011;2011;48.238;13.948;2023-06-14T03:16:21;7.20;;;4.70;;
3993;SDS011;2011;48.238;13.948;2023-06-14T03:18:50;9.70;;;4.30;;
3993;SDS011;2011;48.238;13.948;2023-06-14T03:21:18;6.27;;;4.00;;
3993;SDS011;2011;48.238;13.948;2023-06-14T03:23:46;14.73;;;5.13;;
3993;SDS011;2011;48.238;13.948;2023-06-14T03:26:14;9.60;;;5.07;;
3993;SDS011;2011;48.238;13.948;2023-06-14T03:28:43;7.07;;;4.30;;
3993;SDS011;2011;48.238;13.948;2023-06-14T03:31:10;16.53;;;4.97;;
3993;SDS011;2011;48.238;13.948;2023-06-14T03:33:37;10.60;;;5.00;;
3993;SDS011;2011;48.238;13.948;2023-06-14T03:36:04;8.60;;;5.20;;
3993;SDS011;2011;48.238;13.948;2023-06-14T03:38:32;8.47;;;4.70;;
3993;SDS011;2011;48.238;13.948;2023-06-14T03:41:01;7.03;;;4.70;;
3993;SDS011;2011;48.238;13.948;2023-06-14T03:43:28;8.40;;;4.97;;
3993;SDS011;2011;48.238;13.948;2023-06-14T03:45:56;12.27;;;4.90;;
3993;SDS011;2011;48.238;13.948;2023-06-14T03:48:23;6.83;;;4.47;;
3993;SDS011;2011;48.238;13.948;2023-06-14T03:50:50;11.87;;;4.53;;
3993;SDS011;2011;48.238;13.948;2023-06-14T03:53:18;13.53;;;4.90;;
3993;SDS011;2011;48.238;13.948;2023-06-14T03:55:45;8.60;;;5.17;;
3993;SDS011;2011;48.238;13.948;2023-06-14T03:58:15;17.43;;;5.33;;
3993;SDS011;2011;48.238;13.948;2023-06-14T04:00:42;10.00;;;4.80;;
3993;SDS011;2011;48.238;13.948;2023-06-14T04:03:10;14.80;;;5.37;;
3993;SDS011;2011;48.238;13.948;2023-06-14T04:05:38;11.10;;;5.23;;
3993;SDS011;2011;48.238;13.948;2023-06-14T04:08:07;11.30;;;5.53;;
3993;SDS011;2011;48.238;13.948;2023-06-14T04:10:35;6.73;;;4.63;;
3993;SDS011;2011;48.238;13.948;2023-06-14T04:13:02;9.47;;;5.67;;
3993;SDS011;2011;48.238;13.948;2023-06-14T04:15:31;13.73;;;5.30;;
3993;SDS011;2011;48.238;13.948;2023-06-14T04:17:58;14.90;;;4.83;;
3993;SDS011;2011;48.238;13.948;2023-06-14T04:20:26;12.57;;;4.80;;
3993;SDS011;2011;48.238;13.948;2023-06-14T04:22:57;13.33;;;5.53;;
3993;SDS011;2011;48.238;13.948;2023-06-14T04:25:37;12.00;;;5.70;;
3993;SDS011;2011;48.238;13.948;2023-06-14T04:28:14;12.77;;;5.27;;
3993;SDS011;2011;48.238;13.948;2023-06-14T04:30:47;12.70;;;5.40;;
3993;SDS011;2011;48.238;13.948;2023-06-14T04:33:20;14.73;;;5.10;;
3993;SDS011;2011;48.238;13.948;2023-06-14T04:36:08;8.40;;;4.97;;
3993;SDS011;2011;48.238;13.948;2023-06-14T04:38:37;15.13;;;5.30;;
3993;SDS011;2011;48.238;13.948;2023-06-14T04:41:04;8.80;;;5.10;;
3993;SDS011;2011;48.238;13.948;2023-06-14T04:43:31;7.33;;;4.90;;
3993;SDS011;2011;48.238;13.948;2023-06-14T04:46:04;14.73;;;5.53;;
3993;SDS011;2011;48.238;13.948;2023-06-14T04:48:35;10.50;;;5.10;;
3993;SDS011;2011;48.238;13.948;2023-06-14T04:51:06;7.90;;;5.30;;
3993;SDS011;2011;48.238;13.948;2023-06-14T04:53:33;10.97;;;5.40;;
3993;SDS011;2011;48.238;13.948;2023-06-14T04:56:00;21.07;;;6.30;;
3993;SDS011;2011;48.238;13.948;2023-06-14T04:58:28;9.30;;;5.33;;
3993;SDS011;2011;48.238;13.948;2023-06-14T05:00:55;7.57;;;4.90;;
3993;SDS011;2011;48.238;13.948;2023-06-14T05:03:25;10.83;;;4.90;;
3993;SDS011;2011;48.238;13.948;2023-06-14T05:05:52;12.27;;;4.60;;
3993;SDS011;2011;48.238;13.948;2023-06-14T05:08:20;10.43;;;5.50;;
3993;SDS011;2011;48.238;13.948;2023-06-14T05:10:49;8.00;;;5.10;;
3993;SDS011;2011;48.238;13.948;2023-06-14T05:13:16;7.40;;;5.13;;
3993;SDS011;2011;48.238;13.948;2023-06-14T05:15:43;12.73;;;4.67;;
3993;SDS011;2011;48.238;13.948;2023-06-14T05:18:10;15.77;;;5.80;;
3993;SDS011;2011;48.238;13.948;2023-06-14T05:20:39;13.60;;;5.47;;
3993;SDS011;2011;48.238;13.948;2023-06-14T05:23:08;10.60;;;5.30;;
3993;SDS011;2011;48.238;13.948;2023-06-14T05:25:40;9.73;;;5.07;;
3993;SDS011;2011;48.238;13.948;2023-06-14T05:28:08;8.67;;;5.07;;
3993;SDS011;2011;48.238;13.948;2023-06-14T05:30:35;12.20;;;6.07;;
3993;SDS011;2011;48.238;13.948;2023-06-14T05:33:04;8.70;;;4.50;;
3993;SDS011;2011;48.238;13.948;2023-06-14T05:35:31;9.90;;;5.10;;
3993;SDS011;2011;48.238;13.948;2023-06-14T05:37:59;9.00;;;5.60;;
3993;SDS011;2011;48.238;13.948;2023-06-14T05:40:26;7.43;;;4.50;;
3993;SDS011;2011;48.238;13.948;2023-06-14T05:42:53;12.40;;;5.50;;
3993;SDS011;2011;48.238;13.948;2023-06-14T05:45:20;9.20;;;5.87;;
3993;SDS011;2011;48.238;13.948;2023-06-14T05:47:47;12.30;;;5.07;;
3993;SDS011;2011;48.238;13.948;2023-06-14T05:50:15;11.53;;;5.00;;
3993;SDS011;2011;48.238;13.948;2023-06-14T05:52:42;9.20;;;5.07;;
3993;SDS011;2011;48.238;13.948;2023-06-14T05:55:11;15.20;;;5.57;;
3993;SDS011;2011;48.238;13.948;2023-06-14T05:57:38;10.00;;;5.47;;
3993;SDS011;2011;48.238;13.948;2023-06-14T06:00:05;16.13;;;4.90;;
3993;SDS011;2011;48.238;13.948;2023-06-14T06:02:36;8.97;;;5.30;;
3993;SDS011;2011;48.238;13.948;2023-06-14T06:05:03;11.83;;;4.83;;
3993;SDS011;2011;48.238;13.948;2023-06-14T06:07:31;11.60;;;4.73;;
3993;SDS011;2011;48.238;13.948;2023-06-14T06:09:58;8.47;;;5.13;;
3993;SDS011;2011;48.238;13.948;2023-06-14T06:12:26;8.50;;;5.07;;
3993;SDS011;2011;48.238;13.948;2023-06-14T06:14:53;10.30;;;5.40;;
3993;SDS011;2011;48.238;13.948;2023-06-14T06:17:20;10.70;;;6.00;;
3993;SDS011;2011;48.238;13.948;2023-06-14T06:19:47;13.60;;;5.77;;
3993;SDS011;2011;48.238;13.948;2023-06-14T06:22:14;12.60;;;5.90;;
3993;SDS011;2011;48.238;13.948;2023-06-14T06:24:42;20.73;;;6.67;;
3993;SDS011;2011;48.238;13.948;2023-06-14T06:27:09;17.50;;;5.97;;
3993;SDS011;2011;48.238;13.948;2023-06-14T06:29:38;11.67;;;6.00;;
3993;SDS011;2011;48.238;13.948;2023-06-14T06:32:06;18.23;;;6.43;;
3993;SDS011;2011;48.238;13.948;2023-06-14T06:34:33;10.20;;;5.37;;
3993;SDS011;2011;48.238;13.948;2023-06-14T06:37:00;13.43;;;5.83;;
3993;SDS011;2011;48.238;13.948;2023-06-14T06:39:27;10.47;;;5.70;;
3993;SDS011;2011;48.238;13.948;2023-06-14T06:41:54;12.53;;;5.43;;
3993;SDS011;2011;48.238;13.948;2023-06-14T06:44:21;13.30;;;5.70;;
3993;SDS011;2011;48.238;13.948;2023-06-14T06:46:50;13.53;;;5.90;;
3993;SDS011;2011;48.238;13.948;2023-06-14T06:49:17;15.63;;;5.50;;
3993;SDS011;2011;48.238;13.948;2023-06-14T06:51:48;13.00;;;6.20;;
3993;SDS011;2011;48.238;13.948;2023-06-14T06:54:26;14.67;;;5.23;;
3993;SDS011;2011;48.238;13.948;2023-06-14T06:56:53;13.00;;;5.57;;
3993;SDS011;2011;48.238;13.948;2023-06-14T06:59:20;12.37;;;5.23;;
3993;SDS011;2011;48.238;13.948;2023-06-14T07:01:48;15.93;;;5.43;;
3993;SDS011;2011;48.238;13.948;2023-06-14T07:04:16;14.53;;;5.63;;
3993;SDS011;2011;48.238;13.948;2023-06-14T07:06:43;11.10;;;6.10;;
3993;SDS011;2011;48.238;13.948;2023-06-14T07:09:12;11.03;;;5.30;;
3993;SDS011;2011;48.238;13.948;2023-06-14T07:11:43;13.80;;;5.00;;
3993;SDS011;2011;48.238;13.948;2023-06-14T07:14:10;18.53;;;5.30;;
3993;SDS011;2011;48.238;13.948;2023-06-14T07:16:37;11.03;;;5.57;;
3993;SDS011;2011;48.238;13.948;2023-06-14T07:19:07;18.17;;;5.27;;
3993;SDS011;2011;48.238;13.948;2023-06-14T07:21:35;12.83;;;4.97;;
3993;SDS011;2011;48.238;13.948;2023-06-14T07:24:04;8.50;;;5.67;;
3993;SDS011;2011;48.238;13.948;2023-06-14T07:26:31;8.97;;;5.10;;
3993;SDS011;2011;48.238;13.948;2023-06-14T07:28:58;16.17;;;5.27;;
3993;SDS011;2011;48.238;13.948;2023-06-14T07:31:25;12.70;;;5.87;;
3993;SDS011;2011;48.238;13.948;2023-06-14T07:33:53;16.40;;;4.80;;
3993;SDS011;2011;48.238;13.948;2023-06-14T07:36:21;12.47;;;5.00;;
3993;SDS011;2011;48.238;13.948;2023-06-14T07:38:48;10.80;;;5.27;;
3993;SDS011;2011;48.238;13.948;2023-06-14T07:41:15;10.63;;;4.77;;
3993;SDS011;2011;48.238;13.948;2023-06-14T07:43:42;7.30;;;4.37;;
3993;SDS011;2011;48.238;13.948;2023-06-14T07:46:09;9.37;;;5.13;;
3993;SDS011;2011;48.238;13.948;2023-06-14T07:48:36;11.97;;;5.03;;
3993;SDS011;2011;48.238;13.948;2023-06-14T07:51:03;16.80;;;5.10;;
3993;SDS011;2011;48.238;13.948;2023-06-14T07:53:32;10.60;;;4.73;;
3993;SDS011;2011;48.238;13.948;2023-06-14T07:55:59;12.80;;;4.70;;
3993;SDS011;2011;48.238;13.948;2023-06-14T07:58:26;16.50;;;4.57;;
3993;SDS011;2011;48.238;13.948;2023-06-14T08:00:53;11.70;;;5.10;;
3993;SDS011;2011;48.238;13.948;2023-06-14T08:03:20;13.70;;;5.37;;
3993;SDS011;2011;48.238;13.948;2023-06-14T08:05:47;8.93;;;5.00;;
3993;SDS011;2011;48.238;13.948;2023-06-14T08:08:14;11.93;;;5.77;;
3993;SDS011;2011;48.238;13.948;2023-06-14T08:10:43;10.33;;;5.17;;
3993;SDS011;2011;48.238;13.948;2023-06-14T08:13:10;9.87;;;5.20;;
3993;SDS011;2011;48.238;13.948;2023-06-14T08:15:37;9.03;;;4.80;;
3993;SDS011;2011;48.238;13.948;2023-06-14T08:18:04;12.77;;;5.10;;
3993;SDS011;2011;48.238;13.948;2023-06-14T08:20:31;13.97;;;5.40;;
3993;SDS011;2011;48.238;13.948;2023-06-14T08:23:00;13.43;;;5.27;;
3993;SDS011;2011;48.238;13.948;2023-06-14T08:25:27;10.83;;;5.30;;
3993;SDS011;2011;48.238;13.948;2023-06-14T08:27:55;14.57;;;5.07;;
3993;SDS011;2011;48.238;13.948;2023-06-14T08:30:22;11.30;;;5.33;;
3993;SDS011;2011;48.238;13.948;2023-06-14T08:32:49;9.30;;;4.30;;
3993;SDS011;2011;48.238;13.948;2023-06-14T08:35:17;11.70;;;4.57;;
3993;SDS011;2011;48.238;13.948;2023-06-14T08:37:44;14.10;;;4.60;;
3993;SDS011;2011;48.238;13.948;2023-06-14T08:40:15;11.20;;;4.67;;
3993;SDS011;2011;48.238;13.948;2023-06-14T08:42:47;9.17;;;4.50;;
3993;SDS011;2011;48.238;13.948;2023-06-14T08:45:18;13.60;;;5.00;;
3993;SDS011;2011;48.238;13.948;2023-06-14T08:47:46;17.53;;;5.27;;
3993;SDS011;2011;48.238;13.948;2023-06-14T08:50:18;11.00;;;4.63;;
3993;SDS011;2011;48.238;13.948;2023-06-14T08:52:48;8.23;;;4.97;;
3993;SDS011;2011;48.238;13.948;2023-06-14T08:55:22;7.87;;;4.77;;
3993;SDS011;2011;48.238;13.948;2023-06-14T08:57:53;11.60;;;4.93;;
3993;SDS011;2011;48.238;13.948;2023-06-14T09:00:22;11.90;;;4.73;;
3993;SDS011;2011;48.238;13.948;2023-06-14T09:02:50;43.17;;;5.00;;
3993;SDS011;2011;48.238;13.948;2023-06-14T09:05:21;9.37;;;4.47;;
3993;SDS011;2011;48.238;13.948;2023-06-14T09:07:49;13.63;;;4.20;;
3993;SDS011;2011;48.238;13.948;2023-06-14T09:10:16;9.27;;;4.47;;
3993;SDS011;2011;48.238;13.948;2023-06-14T09:12:44;9.47;;;4.40;;
3993;SDS011;2011;48.238;13.948;2023-06-14T09:15:12;15.57;;;4.50;;
3993;SDS011;2011;48.238;13.948;2023-06-14T09:17:41;10.43;;;4.03;;
3993;SDS011;2011;48.238;13.948;2023-06-14T09:20:09;9.70;;;4.50;;
3993;SDS011;2011;48.238;13.948;2023-06-14T09:22:38;13.80;;;4.77;;
3993;SDS011;2011;48.238;13.948;2023-06-14T09:25:07;13.83;;;4.73;;
3993;SDS011;2011;48.238;13.948;2023-06-14T09:27:34;10.07;;;4.47;;
3993;SDS011;2011;48.238;13.948;2023-06-14T09:30:05;8.47;;;4.30;;
3993;SDS011;2011;48.238;13.948;2023-06-14T09:32:35;7.57;;;4.13;;
3993;SDS011;2011;48.238;13.948;2023-06-14T09:35:05;16.80;;;4.90;;
3993;SDS011;2011;48.238;13.948;2023-06-14T09:37:33;23.10;;;4.67;;
3993;SDS011;2011;48.238;13.948;2023-06-14T09:40:00;10.53;;;4.07;;
3993;SDS011;2011;48.238;13.948;2023-06-14T09:42:29;7.80;;;4.17;;
3993;SDS011;2011;48.238;13.948;2023-06-14T09:44:57;11.63;;;3.90;;
3993;SDS011;2011;48.238;13.948;2023-06-14T09:47:24;19.20;;;5.20;;
3993;SDS011;2011;48.238;13.948;2023-06-14T09:49:51;8.13;;;4.10;;
3993;SDS011;2011;48.238;13.948;2023-06-14T09:52:21;7.47;;;3.70;;
3993;SDS011;2011;48.238;13.948;2023-06-14T09:54:49;7.43;;;3.93;;
3993;SDS011;2011;48.238;13.948;2023-06-14T09:57:16;13.20;;;4.37;;
3993;SDS011;2011;48.238;13.948;2023-06-14T09:59:47;14.90;;;4.37;;
3993;SDS011;2011;48.238;13.948;2023-06-14T10:02:18;12.83;;;4.37;;
3993;SDS011;2011;48.238;13.948;2023-06-14T10:04:50;9.50;;;3.90;;
3993;SDS011;2011;48.238;13.948;2023-06-14T10:07:27;11.70;;;4.10;;
3993;SDS011;2011;48.238;13.948;2023-06-14T10:09:58;11.43;;;4.27;;
3993;SDS011;2011;48.238;13.948;2023-06-14T10:12:25;18.90;;;3.90;;
3993;SDS011;2011;48.238;13.948;2023-06-14T10:14:52;19.03;;;3.60;;
3993;SDS011;2011;48.238;13.948;2023-06-14T10:17:23;12.93;;;4.70;;
3993;SDS011;2011;48.238;13.948;2023-06-14T10:20:02;11.77;;;4.27;;
3993;SDS011;2011;48.238;13.948;2023-06-14T10:22:48;9.53;;;3.80;;
3993;SDS011;2011;48.238;13.948;2023-06-14T10:25:27;11.33;;;3.70;;
3993;SDS011;2011;48.238;13.948;2023-06-14T10:28:14;8.27;;;4.43;;
3993;SDS011;2011;48.238;13.948;2023-06-14T10:33:34;11.07;;;4.33;;
3993;SDS011;2011;48.238;13.948;2023-06-14T10:39:00;10.60;;;3.70;;
3993;SDS011;2011;48.238;13.948;2023-06-14T10:41:30;7.97;;;3.80;;
3993;SDS011;2011;48.238;13.948;2023-06-14T10:46:59;9.00;;;3.70;;
3993;SDS011;2011;48.238;13.948;2023-06-14T10:49:37;9.90;;;4.00;;
3993;SDS011;2011;48.238;13.948;2023-06-14T10:52:10;8.83;;;3.40;;
3993;SDS011;2011;48.238;13.948;2023-06-14T10:55:06;11.80;;;3.87;;
3993;SDS011;2011;48.238;13.948;2023-06-14T10:57:38;8.00;;;4.10;;
3993;SDS011;2011;48.238;13.948;2023-06-14T11:00:07;10.47;;;3.77;;
3993;SDS011;2011;48.238;13.948;2023-06-14T11:05:57;8.27;;;4.00;;
3993;SDS011;2011;48.238;13.948;2023-06-14T11:08:27;6.17;;;3.57;;
3993;SDS011;2011;48.238;13.948;2023-06-14T11:11:10;6.70;;;4.10;;
3993;SDS011;2011;48.238;13.948;2023-06-14T11:13:41;9.00;;;3.90;;
3993;SDS011;2011;48.238;13.948;2023-06-14T11:16:13;8.37;;;4.03;;
3993;SDS011;2011;48.238;13.948;2023-06-14T11:18:40;12.47;;;3.97;;
3993;SDS011;2011;48.238;13.948;2023-06-14T11:21:08;15.87;;;3.77;;
3993;SDS011;2011;48.238;13.948;2023-06-14T11:23:35;8.37;;;4.30;;
3993;SDS011;2011;48.238;13.948;2023-06-14T11:26:02;6.90;;;3.70;;
3993;SDS011;2011;48.238;13.948;2023-06-14T11:28:38;6.30;;;3.57;;
3993;SDS011;2011;48.238;13.948;2023-06-14T11:31:06;6.90;;;3.87;;
3993;SDS011;2011;48.238;13.948;2023-06-14T11:33:34;11.90;;;3.70;;
3993;SDS011;2011;48.238;13.948;2023-06-14T11:36:01;7.67;;;3.70;;
3993;SDS011;2011;48.238;13.948;2023-06-14T11:38:29;9.30;;;3.80;;
3993;SDS011;2011;48.238;13.948;2023-06-14T11:40:58;12.50;;;3.80;;
3993;SDS011;2011;48.238;13.948;2023-06-14T11:43:26;6.87;;;3.10;;
3993;SDS011;2011;48.238;13.948;2023-06-14T11:45:55;8.03;;;3.43;;
3993;SDS011;2011;48.238;13.948;2023-06-14T11:48:22;9.00;;;3.80;;
3993;SDS011;2011;48.238;13.948;2023-06-14T11:50:49;12.13;;;3.90;;
3993;SDS011;2011;48.238;13.948;2023-06-14T11:53:16;10.27;;;4.10;;
3993;SDS011;2011;48.238;13.948;2023-06-14T11:55:44;6.77;;;3.90;;
3993;SDS011;2011;48.238;13.948;2023-06-14T11:58:12;8.53;;;3.70;;
3993;SDS011;2011;48.238;13.948;2023-06-14T12:00:40;6.17;;;3.60;;
3993;SDS011;2011;48.238;13.948;2023-06-14T12:03:09;9.33;;;4.00;;
3993;SDS011;2011;48.238;13.948;2023-06-14T12:05:39;7.03;;;3.90;;
3993;SDS011;2011;48.238;13.948;2023-06-14T12:08:06;26.17;;;4.37;;
3993;SDS011;2011;48.238;13.948;2023-06-14T12:10:39;8.97;;;3.70;;
3993;SDS011;2011;48.238;13.948;2023-06-14T12:13:08;7.50;;;3.93;;
3993;SDS011;2011;48.238;13.948;2023-06-14T12:15:35;8.20;;;3.90;;
3993;SDS011;2011;48.238;13.948;2023-06-14T12:18:04;14.53;;;4.00;;
3993;SDS011;2011;48.238;13.948;2023-06-14T12:20:34;6.40;;;3.50;;
3993;SDS011;2011;48.238;13.948;2023-06-14T12:23:03;10.03;;;4.20;;
3993;SDS011;2011;48.238;13.948;2023-06-14T12:25:31;9.87;;;3.87;;
3993;SDS011;2011;48.238;13.948;2023-06-14T12:27:59;10.23;;;4.60;;
3993;SDS011;2011;48.238;13.948;2023-06-14T12:30:30;7.90;;;3.20;;
3993;SDS011;2011;48.238;13.948;2023-06-14T12:32:57;10.63;;;3.83;;
3993;SDS011;2011;48.238;13.948;2023-06-14T12:35:24;9.10;;;4.30;;
3993;SDS011;2011;48.238;13.948;2023-06-14T12:37:52;9.90;;;3.33;;
3993;SDS011;2011;48.238;13.948;2023-06-14T12:40:19;9.13;;;4.57;;
3993;SDS011;2011;48.238;13.948;2023-06-14T12:42:46;9.50;;;3.60;;
3993;SDS011;2011;48.238;13.948;2023-06-14T12:45:13;7.60;;;3.83;;
3993;SDS011;2011;48.238;13.948;2023-06-14T12:47:40;8.50;;;3.30;;
3993;SDS011;2011;48.238;13.948;2023-06-14T12:50:07;11.73;;;3.70;;
3993;SDS011;2011;48.238;13.948;2023-06-14T12:52:34;16.20;;;3.50;;
3993;SDS011;2011;48.238;13.948;2023-06-14T12:55:03;5.23;;;3.13;;
3993;SDS011;2011;48.238;13.948;2023-06-14T12:57:31;6.17;;;2.83;;
3993;SDS011;2011;48.238;13.948;2023-06-14T13:00:01;8.13;;;3.47;;
3993;SDS011;2011;48.238;13.948;2023-06-14T13:02:29;6.33;;;3.20;;
3993;SDS011;2011;48.238;13.948;2023-06-14T13:04:56;6.30;;;3.10;;
3993;SDS011;2011;48.238;13.948;2023-06-14T13:07:23;4.73;;;2.67;;
3993;SDS011;2011;48.238;13.948;2023-06-14T13:09:50;8.47;;;3.37;;
3993;SDS011;2011;48.238;13.948;2023-06-14T13:12:19;11.37;;;3.20;;
3993;SDS011;2011;48.238;13.948;2023-06-14T13:14:46;11.23;;;3.47;;
3993;SDS011;2011;48.238;13.948;2023-06-14T13:17:12;6.50;;;2.80;;
3993;SDS011;2011;48.238;13.948;2023-06-14T13:19:39;6.57;;;3.33;;
3993;SDS011;2011;48.238;13.948;2023-06-14T13:22:07;9.10;;;3.33;;
3993;SDS011;2011;48.238;13.948;2023-06-14T13:24:34;10.87;;;3.23;;
3993;SDS011;2011;48.238;13.948;2023-06-14T13:27:01;6.80;;;3.23;;
3993;SDS011;2011;48.238;13.948;2023-06-14T13:29:29;6.03;;;2.73;;
3993;SDS011;2011;48.238;13.948;2023-06-14T13:31:58;10.20;;;3.43;;
3993;SDS011;2011;48.238;13.948;2023-06-14T13:34:26;5.47;;;3.17;;
3993;SDS011;2011;48.238;13.948;2023-06-14T13:36:52;9.23;;;3.40;;
3993;SDS011;2011;48.238;13.948;2023-06-14T13:39:20;8.07;;;3.47;;
3993;SDS011;2011;48.238;13.948;2023-06-14T13:41:47;5.73;;;3.50;;
3993;SDS011;2011;48.238;13.948;2023-06-14T13:44:14;6.97;;;3.37;;
3993;SDS011;2011;48.238;13.948;2023-06-14T13:46:44;7.07;;;3.70;;
3993;SDS011;2011;48.238;13.948;2023-06-14T13:49:11;6.70;;;2.83;;
3993;SDS011;2011;48.238;13.948;2023-06-14T13:51:38;5.50;;;3.17;;
3993;SDS011;2011;48.238;13.948;2023-06-14T13:54:05;7.20;;;3.00;;
3993;SDS011;2011;48.238;13.948;2023-06-14T13:56:33;8.30;;;3.30;;
3993;SDS011;2011;48.238;13.948;2023-06-14T13:59:00;7.37;;;3.23;;
3993;SDS011;2011;48.238;13.948;2023-06-14T14:01:27;9.80;;;3.00;;
3993;SDS011;2011;48.238;13.948;2023-06-14T14:03:55;7.80;;;3.20;;
3993;SDS011;2011;48.238;13.948;2023-06-14T14:06:23;10.07;;;3.07;;
3993;SDS011;2011;48.238;13.948;2023-06-14T14:08:50;9.67;;;3.17;;
3993;SDS011;2011;48.238;13.948;2023-06-14T14:11:18;5.63;;;3.10;;
3993;SDS011;2011;48.238;13.948;2023-06-14T14:13:45;7.20;;;2.67;;
3993;SDS011;2011;48.238;13.948;2023-06-14T14:16:13;9.03;;;3.50;;
3993;SDS011;2011;48.238;13.948;2023-06-14T14:18:40;5.10;;;3.00;;
3993;SDS011;2011;48.238;13.948;2023-06-14T14:21:08;7.33;;;2.87;;
3993;SDS011;2011;48.238;13.948;2023-06-14T14:23:35;7.23;;;3.50;;
3993;SDS011;2011;48.238;13.948;2023-06-14T14:26:02;14.83;;;3.40;;
3993;SDS011;2011;48.238;13.948;2023-06-14T14:28:29;39.77;;;3.47;;
3993;SDS011;2011;48.238;13.948;2023-06-14T14:30:57;5.57;;;2.57;;
3993;SDS011;2011;48.238;13.948;2023-06-14T14:33:24;7.10;;;3.20;;
3993;SDS011;2011;48.238;13.948;2023-06-14T14:35:51;5.20;;;2.83;;
3993;SDS011;2011;48.238;13.948;2023-06-14T14:38:20;8.00;;;3.00;;
3993;SDS011;2011;48.238;13.948;2023-06-14T14:40:47;8.57;;;3.00;;
3993;SDS011;2011;48.238;13.948;2023-06-14T14:43:15;5.23;;;2.60;;
3993;SDS011;2011;48.238;13.948;2023-06-14T14:45:42;16.40;;;3.30;;
3993;SDS011;2011;48.238;13.948;2023-06-14T14:48:09;7.00;;;3.03;;
3993;SDS011;2011;48.238;13.948;2023-06-14T14:50:36;13.53;;;2.87;;
3993;SDS011;2011;48.238;13.948;2023-06-14T14:53:05;7.70;;;2.83;;
3993;SDS011;2011;48.238;13.948;2023-06-14T14:55:33;5.60;;;2.53;;
3993;SDS011;2011;48.238;13.948;2023-06-14T14:58:03;7.83;;;2.63;;
3993;SDS011;2011;48.238;13.948;2023-06-14T15:00:31;9.90;;;3.07;;
3993;SDS011;2011;48.238;13.948;2023-06-14T15:02:59;7.10;;;3.03;;
3993;SDS011;2011;48.238;13.948;2023-06-14T15:05:26;9.00;;;3.10;;
3993;SDS011;2011;48.238;13.948;2023-06-14T15:07:53;5.80;;;3.17;;
3993;SDS011;2011;48.238;13.948;2023-06-14T15:10:20;7.00;;;3.60;;
3993;SDS011;2011;48.238;13.948;2023-06-14T15:12:48;4.53;;;2.50;;
3993;SDS011;2011;48.238;13.948;2023-06-14T15:15:15;6.63;;;2.83;;